sensor_id;sensor_type;location;lat;lon;timestamp;pressure;altitude;pressure_sealevel;temperature;humidity
58668;BME280;59852;43.086;25.634;2023-06-14T00:00:30;98543.78;;;18.55;77.80
58668;BME280;59852;43.086;25.634;2023-06-14T00:02:56;98541.28;;;18.29;78.76
58668;BME280;59852;43.086;25.634;2023-06-14T00:05:22;98543.28;;;18.51;77.70
58668;BME280;59852;43.086;25.634;2023-06-14T00:07:48;98540.13;;;18.48;77.95
58668;BME280;59852;43.086;25.634;2023-06-14T00:10:14;98538.13;;;18.33;78.52
58668;BME280;59852;43.086;25.634;2023-06-14T00:12:40;98534.81;;;18.48;77.81
58668;BME280;59852;43.086;25.634;2023-06-14T00:15:05;98540.25;;;18.14;79.35
58668;BME280;59852;43.086;25.634;2023-06-14T00:17:31;98540.59;;;18.35;78.71
58668;BME280;59852;43.086;25.634;2023-06-14T00:19:57;98538.56;;;18.04;80.23
58668;BME280;59852;43.086;25.634;2023-06-14T00:22:22;98532.09;;;18.07;80.07
58668;BME280;59852;43.086;25.634;2023-06-14T00:24:49;98531.19;;;18.41;78.63
58668;BME280;59852;43.086;25.634;2023-06-14T00:27:15;98547.44;;;18.62;77.52
58668;BME280;59852;43.086;25.634;2023-06-14T00:29:40;98542.94;;;18.46;77.66
58668;BME280;59852;43.086;25.634;2023-06-14T00:32:06;98543.75;;;18.30;78.37
58668;BME280;59852;43.086;25.634;2023-06-14T00:34:31;98544.59;;;18.31;78.90
58668;BME280;59852;43.086;25.634;2023-06-14T00:36:57;98541.81;;;18.49;78.19
58668;BME280;59852;43.086;25.634;2023-06-14T00:39:22;98535.47;;;18.33;78.01
58668;BME280;59852;43.086;25.634;2023-06-14T00:41:47;98537.31;;;18.57;77.41
58668;BME280;59852;43.086;25.634;2023-06-14T00:44:13;98523.75;;;18.52;77.14
58668;BME280;59852;43.086;25.634;2023-06-14T00:46:41;98526.72;;;18.33;77.93
58668;BME280;59852;43.086;25.634;2023-06-14T00:49:06;98522.25;;;18.33;77.99
58668;BME280;59852;43.086;25.634;2023-06-14T00:51:32;98526.50;;;18.02;78.95
58668;BME280;59852;43.086;25.634;2023-06-14T00:53:57;98523.84;;;18.18;78.52
58668;BME280;59852;43.086;25.634;2023-06-14T00:56:22;98522.53;;;18.06;79.10
58668;BME280;59852;43.086;25.634;2023-06-14T00:58:48;98516.09;;;18.17;78.97
58668;BME280;59852;43.086;25.634;2023-06-14T01:01:14;98516.22;;;17.99;79.64
58668;BME280;59852;43.086;25.634;2023-06-14T01:03:40;98523.50;;;18.05;79.19
58668;BME280;59852;43.086;25.634;2023-06-14T01:11:27;98517.47;;;17.78;80.24
58668;BME280;59852;43.086;25.634;2023-06-14T01:13:53;98515.84;;;17.43;82.03
58668;BME280;59852;43.086;25.634;2023-06-14T01:16:20;98518.41;;;17.61;81.01
58668;BME280;59852;43.086;25.634;2023-06-14T01:18:45;98512.91;;;17.55;81.21
58668;BME280;59852;43.086;25.634;2023-06-14T01:21:24;98512.94;;;17.63;81.16
58668;BME280;59852;43.086;25.634;2023-06-14T01:23:50;98511.00;;;17.39;82.10
58668;BME280;59852;43.086;25.634;2023-06-14T01:26:20;98510.44;;;17.53;81.47
58668;BME280;59852;43.086;25.634;2023-06-14T01:28:45;98512.44;;;17.67;80.87
58668;BME280;59852;43.086;25.634;2023-06-14T01:31:14;98502.63;;;17.43;81.62
58668;BME280;59852;43.086;25.634;2023-06-14T01:33:41;98512.88;;;17.46;82.03
58668;BME280;59852;43.086;25.634;2023-06-14T01:36:07;98506.22;;;17.08;83.46
58668;BME280;59852;43.086;25.634;2023-06-14T01:38:33;98511.13;;;17.29;83.10
58668;BME280;59852;43.086;25.634;2023-06-14T01:40:59;98511.81;;;16.79;85.20
58668;BME280;59852;43.086;25.634;2023-06-14T01:43:25;98508.34;;;16.79;84.76
58668;BME280;59852;43.086;25.634;2023-06-14T01:45:52;98508.09;;;17.16;84.19
58668;BME280;59852;43.086;25.634;2023-06-14T01:48:18;98507.03;;;17.09;84.01
58668;BME280;59852;43.086;25.634;2023-06-14T01:50:45;98500.69;;;16.94;85.37
58668;BME280;59852;43.086;25.634;2023-06-14T01:53:10;98505.34;;;17.26;83.64
58668;BME280;59852;43.086;25.634;2023-06-14T01:55:35;98504.56;;;17.33;82.94
58668;BME280;59852;43.086;25.634;2023-06-14T01:58:03;98518.44;;;16.66;85.82
58668;BME280;59852;43.086;25.634;2023-06-14T02:00:28;98525.78;;;16.36;88.14
58668;BME280;59852;43.086;25.634;2023-06-14T02:02:54;98524.81;;;16.55;87.00
58668;BME280;59852;43.086;25.634;2023-06-14T02:05:19;98524.97;;;16.97;84.95
58668;BME280;59852;43.086;25.634;2023-06-14T02:07:45;98524.00;;;16.72;85.31
58668;BME280;59852;43.086;25.634;2023-06-14T02:10:11;98524.81;;;16.55;87.46
58668;BME280;59852;43.086;25.634;2023-06-14T02:12:36;98511.66;;;17.07;84.61
58668;BME280;59852;43.086;25.634;2023-06-14T02:15:02;98524.91;;;16.89;85.08
58668;BME280;59852;43.086;25.634;2023-06-14T02:17:28;98520.19;;;17.01;84.55
58668;BME280;59852;43.086;25.634;2023-06-14T02:19:54;98523.47;;;17.20;83.96
58668;BME280;59852;43.086;25.634;2023-06-14T02:22:20;98530.44;;;17.30;82.94
58668;BME280;59852;43.086;25.634;2023-06-14T02:24:47;98528.19;;;16.83;84.95
58668;BME280;59852;43.086;25.634;2023-06-14T02:27:12;98524.59;;;17.18;83.61
58668;BME280;59852;43.086;25.634;2023-06-14T02:29:37;98528.28;;;17.25;82.71
58668;BME280;59852;43.086;25.634;2023-06-14T02:32:04;98530.88;;;16.91;84.01
58668;BME280;59852;43.086;25.634;2023-06-14T02:34:29;98527.84;;;17.04;83.49
58668;BME280;59852;43.086;25.634;2023-06-14T02:36:54;98530.88;;;16.91;84.58
58668;BME280;59852;43.086;25.634;2023-06-14T02:39:20;98537.69;;;16.94;84.19
58668;BME280;59852;43.086;25.634;2023-06-14T02:41:46;98533.91;;;17.22;83.15
58668;BME280;59852;43.086;25.634;2023-06-14T02:44:12;98541.78;;;16.70;84.48
58668;BME280;59852;43.086;25.634;2023-06-14T02:46:38;98541.19;;;16.76;85.74
58668;BME280;59852;43.086;25.634;2023-06-14T02:49:03;98545.59;;;16.94;84.21
58668;BME280;59852;43.086;25.634;2023-06-14T02:51:28;98548.72;;;16.35;87.21
58668;BME280;59852;43.086;25.634;2023-06-14T02:53:54;98552.94;;;16.64;85.70
58668;BME280;59852;43.086;25.634;2023-06-14T02:56:20;98554.06;;;16.79;85.38
58668;BME280;59852;43.086;25.634;2023-06-14T02:58:47;98553.97;;;16.89;85.11
58668;BME280;59852;43.086;25.634;2023-06-14T03:01:13;98558.28;;;16.90;85.06
58668;BME280;59852;43.086;25.634;2023-06-14T03:03:39;98567.00;;;16.82;85.31
58668;BME280;59852;43.086;25.634;2023-06-14T03:06:05;98559.50;;;16.78;85.35
58668;BME280;59852;43.086;25.634;2023-06-14T03:08:31;98563.13;;;16.77;85.32
58668;BME280;59852;43.086;25.634;2023-06-14T03:10:58;98570.63;;;16.81;85.59
58668;BME280;59852;43.086;25.634;2023-06-14T03:13:23;98573.81;;;16.57;86.18
58668;BME280;59852;43.086;25.634;2023-06-14T03:15:48;98572.19;;;16.92;85.26
58668;BME280;59852;43.086;25.634;2023-06-14T03:18:17;98578.41;;;16.91;85.37
58668;BME280;59852;43.086;25.634;2023-06-14T03:20:42;98576.03;;;16.80;85.51
58668;BME280;59852;43.086;25.634;2023-06-14T03:23:08;98581.13;;;16.99;84.41
58668;BME280;59852;43.086;25.634;2023-06-14T03:25:33;98578.22;;;16.84;85.68
58668;BME280;59852;43.086;25.634;2023-06-14T03:28:01;98574.63;;;17.11;84.58
58668;BME280;59852;43.086;25.634;2023-06-14T03:30:26;98583.78;;;16.99;85.24
58668;BME280;59852;43.086;25.634;2023-06-14T03:32:51;98581.84;;;17.01;85.21
58668;BME280;59852;43.086;25.634;2023-06-14T03:35:20;98593.13;;;17.11;84.63
58668;BME280;59852;43.086;25.634;2023-06-14T03:37:46;98592.16;;;16.95;86.44
58668;BME280;59852;43.086;25.634;2023-06-14T03:40:12;98602.41;;;17.15;85.61
58668;BME280;59852;43.086;25.634;2023-06-14T03:42:38;98598.56;;;17.36;84.36
58668;BME280;59852;43.086;25.634;2023-06-14T03:45:04;98598.22;;;16.69;87.76
58668;BME280;59852;43.086;25.634;2023-06-14T03:47:29;98597.44;;;17.12;86.83
58668;BME280;59852;43.086;25.634;2023-06-14T03:49:54;98597.78;;;17.69;83.92
58668;BME280;59852;43.086;25.634;2023-06-14T03:52:20;98605.34;;;17.90;82.14
58668;BME280;59852;43.086;25.634;2023-06-14T03:54:47;98605.25;;;17.74;82.30
58668;BME280;59852;43.086;25.634;2023-06-14T03:57:12;98604.66;;;17.80;82.64
58668;BME280;59852;43.086;25.634;2023-06-14T03:59:38;98606.66;;;17.34;83.56
58668;BME280;59852;43.086;25.634;2023-06-14T04:02:03;98612.56;;;16.84;86.85
58668;BME280;59852;43.086;25.634;2023-06-14T04:04:28;98613.72;;;17.26;85.94
58668;BME280;59852;43.086;25.634;2023-06-14T04:06:54;98600.06;;;17.64;84.52
58668;BME280;59852;43.086;25.634;2023-06-14T04:09:20;98605.09;;;17.49;84.73
58668;BME280;59852;43.086;25.634;2023-06-14T04:11:45;98604.84;;;17.61;84.98
58668;BME280;59852;43.086;25.634;2023-06-14T04:14:11;98598.75;;;17.68;83.62
58668;BME280;59852;43.086;25.634;2023-06-14T04:16:36;98608.06;;;17.72;83.86
58668;BME280;59852;43.086;25.634;2023-06-14T04:19:02;98601.63;;;17.75;83.90
58668;BME280;59852;43.086;25.634;2023-06-14T04:21:27;98616.72;;;17.31;86.15
58668;BME280;59852;43.086;25.634;2023-06-14T04:23:53;98605.50;;;17.63;84.96
58668;BME280;59852;43.086;25.634;2023-06-14T04:26:20;98610.16;;;17.95;82.93
58668;BME280;59852;43.086;25.634;2023-06-14T04:28:46;98608.56;;;17.76;83.55
58668;BME280;59852;43.086;25.634;2023-06-14T04:31:12;98611.81;;;17.96;83.68
58668;BME280;59852;43.086;25.634;2023-06-14T04:33:37;98615.22;;;17.54;85.27
58668;BME280;59852;43.086;25.634;2023-06-14T04:36:10;98627.69;;;17.18;86.53
58668;BME280;59852;43.086;25.634;2023-06-14T04:38:39;98628.34;;;16.94;87.85
58668;BME280;59852;43.086;25.634;2023-06-14T04:41:04;98634.97;;;16.98;88.16
58668;BME280;59852;43.086;25.634;2023-06-14T04:43:31;98627.72;;;17.44;85.87
58668;BME280;59852;43.086;25.634;2023-06-14T04:45:57;98635.44;;;17.63;84.37
58668;BME280;59852;43.086;25.634;2023-06-14T04:48:22;98633.97;;;17.69;83.97
58668;BME280;59852;43.086;25.634;2023-06-14T04:50:47;98633.97;;;17.69;84.07
58668;BME280;59852;43.086;25.634;2023-06-14T04:53:13;98637.34;;;17.71;84.67
58668;BME280;59852;43.086;25.634;2023-06-14T04:55:38;98640.81;;;17.54;84.67
58668;BME280;59852;43.086;25.634;2023-06-14T04:58:04;98645.06;;;17.46;85.72
58668;BME280;59852;43.086;25.634;2023-06-14T05:00:30;98652.84;;;17.48;85.89
58668;BME280;59852;43.086;25.634;2023-06-14T05:02:55;98650.28;;;17.82;84.11
58668;BME280;59852;43.086;25.634;2023-06-14T05:05:22;98663.81;;;17.53;84.73
58668;BME280;59852;43.086;25.634;2023-06-14T05:07:47;98654.19;;;17.70;84.16
58668;BME280;59852;43.086;25.634;2023-06-14T05:10:12;98655.44;;;17.66;84.70
58668;BME280;59852;43.086;25.634;2023-06-14T05:12:38;98661.34;;;17.60;85.13
58668;BME280;59852;43.086;25.634;2023-06-14T05:15:03;98660.38;;;17.87;83.53
58668;BME280;59852;43.086;25.634;2023-06-14T05:17:29;98666.16;;;17.82;82.81
58668;BME280;59852;43.086;25.634;2023-06-14T05:19:55;98670.28;;;17.85;83.27
58668;BME280;59852;43.086;25.634;2023-06-14T05:22:23;98668.13;;;17.80;82.77
58668;BME280;59852;43.086;25.634;2023-06-14T05:24:49;98665.00;;;17.85;82.84
58668;BME280;59852;43.086;25.634;2023-06-14T05:27:16;98672.50;;;17.45;84.50
58668;BME280;59852;43.086;25.634;2023-06-14T05:29:41;98668.47;;;17.85;82.64
58668;BME280;59852;43.086;25.634;2023-06-14T05:32:06;98675.22;;;17.80;82.82
58668;BME280;59852;43.086;25.634;2023-06-14T05:34:32;98662.09;;;17.96;83.13
58668;BME280;59852;43.086;25.634;2023-06-14T05:36:57;98680.19;;;17.57;83.68
58668;BME280;59852;43.086;25.634;2023-06-14T05:39:23;98685.44;;;17.74;84.05
58668;BME280;59852;43.086;25.634;2023-06-14T05:41:49;98686.34;;;17.65;82.85
58668;BME280;59852;43.086;25.634;2023-06-14T05:44:14;98686.00;;;17.86;81.63
58668;BME280;59852;43.086;25.634;2023-06-14T05:46:40;98685.28;;;18.02;80.77
58668;BME280;59852;43.086;25.634;2023-06-14T05:49:06;98684.91;;;17.97;80.68
58668;BME280;59852;43.086;25.634;2023-06-14T05:51:31;98699.44;;;17.49;83.55
58668;BME280;59852;43.086;25.634;2023-06-14T05:53:56;98698.53;;;17.58;84.15
58668;BME280;59852;43.086;25.634;2023-06-14T05:56:22;98704.19;;;17.81;83.48
58668;BME280;59852;43.086;25.634;2023-06-14T05:58:47;98703.59;;;17.95;82.53
58668;BME280;59852;43.086;25.634;2023-06-14T06:01:13;98697.38;;;18.04;82.32
58668;BME280;59852;43.086;25.634;2023-06-14T06:03:38;98705.78;;;18.00;81.83
58668;BME280;59852;43.086;25.634;2023-06-14T06:06:04;98709.94;;;18.02;82.17
58668;BME280;59852;43.086;25.634;2023-06-14T06:08:29;98710.31;;;17.64;83.60
58668;BME280;59852;43.086;25.634;2023-06-14T06:10:55;98714.19;;;17.95;82.73
58668;BME280;59852;43.086;25.634;2023-06-14T06:13:20;98712.72;;;17.75;82.66
58668;BME280;59852;43.086;25.634;2023-06-14T06:15:46;98714.22;;;18.03;81.67
58668;BME280;59852;43.086;25.634;2023-06-14T06:18:11;98721.91;;;17.89;82.46
58668;BME280;59852;43.086;25.634;2023-06-14T06:20:37;98721.69;;;18.08;81.38
58668;BME280;59852;43.086;25.634;2023-06-14T06:23:02;98718.25;;;18.16;80.19
58668;BME280;59852;43.086;25.634;2023-06-14T06:25:28;98721.63;;;17.92;81.99
58668;BME280;59852;43.086;25.634;2023-06-14T06:27:54;98712.28;;;18.14;80.90
58668;BME280;59852;43.086;25.634;2023-06-14T06:30:19;98707.91;;;18.30;79.72
58668;BME280;59852;43.086;25.634;2023-06-14T06:32:45;98710.28;;;18.42;79.73
58668;BME280;59852;43.086;25.634;2023-06-14T06:35:11;98714.91;;;18.40;79.77
58668;BME280;59852;43.086;25.634;2023-06-14T06:37:37;98711.56;;;18.38;79.79
58668;BME280;59852;43.086;25.634;2023-06-14T06:40:02;98722.00;;;18.73;77.12
58668;BME280;59852;43.086;25.634;2023-06-14T06:42:31;98721.66;;;18.68;77.35
58668;BME280;59852;43.086;25.634;2023-06-14T06:44:56;98716.69;;;18.73;76.71
58668;BME280;59852;43.086;25.634;2023-06-14T06:47:21;98721.03;;;18.82;76.27
58668;BME280;59852;43.086;25.634;2023-06-14T06:49:47;98720.91;;;19.16;75.83
58668;BME280;59852;43.086;25.634;2023-06-14T06:52:13;98718.59;;;19.46;75.08
58668;BME280;59852;43.086;25.634;2023-06-14T06:54:38;98712.84;;;19.59;73.06
58668;BME280;59852;43.086;25.634;2023-06-14T06:57:04;98712.31;;;19.63;72.57
58668;BME280;59852;43.086;25.634;2023-06-14T06:59:30;98713.47;;;19.61;72.60
58668;BME280;59852;43.086;25.634;2023-06-14T07:01:56;98718.91;;;19.35;73.72
58668;BME280;59852;43.086;25.634;2023-06-14T07:04:21;98713.75;;;18.92;74.13
58668;BME280;59852;43.086;25.634;2023-06-14T07:06:47;98709.63;;;19.14;73.67
58668;BME280;59852;43.086;25.634;2023-06-14T07:09:12;98710.81;;;19.28;74.11
58668;BME280;59852;43.086;25.634;2023-06-14T07:11:40;98705.66;;;19.35;73.23
58668;BME280;59852;43.086;25.634;2023-06-14T07:14:05;98709.00;;;19.29;72.82
58668;BME280;59852;43.086;25.634;2023-06-14T07:16:31;98699.22;;;19.62;72.91
58668;BME280;59852;43.086;25.634;2023-06-14T07:18:56;98699.53;;;19.75;72.56
58668;BME280;59852;43.086;25.634;2023-06-14T07:21:22;98696.38;;;19.80;71.36
58668;BME280;59852;43.086;25.634;2023-06-14T07:23:47;98699.38;;;20.24;70.09
58668;BME280;59852;43.086;25.634;2023-06-14T07:26:12;98694.06;;;20.24;69.52
58668;BME280;59852;43.086;25.634;2023-06-14T07:28:38;98702.28;;;20.53;69.84
58668;BME280;59852;43.086;25.634;2023-06-14T07:31:03;98691.72;;;20.37;68.75
58668;BME280;59852;43.086;25.634;2023-06-14T07:33:28;98695.88;;;20.31;68.62
58668;BME280;59852;43.086;25.634;2023-06-14T07:35:54;98699.63;;;20.06;69.84
58668;BME280;59852;43.086;25.634;2023-06-14T07:38:19;98696.44;;;20.19;68.86
58668;BME280;59852;43.086;25.634;2023-06-14T07:40:44;98691.44;;;20.63;67.78
58668;BME280;59852;43.086;25.634;2023-06-14T07:43:10;98695.28;;;20.60;67.15
58668;BME280;59852;43.086;25.634;2023-06-14T07:45:36;98696.66;;;21.02;66.26
58668;BME280;59852;43.086;25.634;2023-06-14T07:48:01;98695.63;;;20.88;65.79
58668;BME280;59852;43.086;25.634;2023-06-14T07:50:26;98693.59;;;20.90;65.70
58668;BME280;59852;43.086;25.634;2023-06-14T07:52:52;98695.88;;;20.71;65.86
58668;BME280;59852;43.086;25.634;2023-06-14T07:55:17;98690.03;;;20.44;66.98
58668;BME280;59852;43.086;25.634;2023-06-14T07:57:43;98691.66;;;20.53;66.83
58668;BME280;59852;43.086;25.634;2023-06-14T08:00:09;98689.34;;;20.81;66.18
58668;BME280;59852;43.086;25.634;2023-06-14T08:02:39;98692.38;;;21.01;66.53
58668;BME280;59852;43.086;25.634;2023-06-14T08:05:04;98695.91;;;20.62;67.81
58668;BME280;59852;43.086;25.634;2023-06-14T08:07:30;98699.97;;;20.50;67.49
58668;BME280;59852;43.086;25.634;2023-06-14T08:09:55;98701.13;;;20.87;66.49
58668;BME280;59852;43.086;25.634;2023-06-14T08:12:20;98700.38;;;20.93;65.94
58668;BME280;59852;43.086;25.634;2023-06-14T08:14:46;98705.69;;;20.70;66.93
58668;BME280;59852;43.086;25.634;2023-06-14T08:17:11;98701.66;;;20.74;67.17
58668;BME280;59852;43.086;25.634;2023-06-14T08:19:36;98709.69;;;20.97;67.03
58668;BME280;59852;43.086;25.634;2023-06-14T08:22:02;98708.97;;;21.03;66.53
58668;BME280;59852;43.086;25.634;2023-06-14T08:24:28;98703.53;;;21.19;65.42
58668;BME280;59852;43.086;25.634;2023-06-14T08:26:54;98710.75;;;21.11;66.43
58668;BME280;59852;43.086;25.634;2023-06-14T08:29:19;98717.91;;;21.33;66.18
58668;BME280;59852;43.086;25.634;2023-06-14T08:31:46;98707.03;;;21.20;66.97
58668;BME280;59852;43.086;25.634;2023-06-14T08:34:11;98711.03;;;21.62;65.00
58668;BME280;59852;43.086;25.634;2023-06-14T08:36:37;98704.66;;;22.00;63.72
58668;BME280;59852;43.086;25.634;2023-06-14T08:39:02;98701.88;;;21.64;63.65
58668;BME280;59852;43.086;25.634;2023-06-14T08:41:28;98702.50;;;21.66;64.11
58668;BME280;59852;43.086;25.634;2023-06-14T08:43:54;98701.44;;;22.05;63.40
58668;BME280;59852;43.086;25.634;2023-06-14T08:46:20;98705.59;;;22.08;63.12
58668;BME280;59852;43.086;25.634;2023-06-14T08:48:47;98699.69;;;21.97;62.85
58668;BME280;59852;43.086;25.634;2023-06-14T08:51:15;98702.13;;;22.07;63.14
58668;BME280;59852;43.086;25.634;2023-06-14T08:53:43;98696.78;;;22.22;62.52
58668;BME280;59852;43.086;25.634;2023-06-14T08:56:09;98698.97;;;22.03;63.48
58668;BME280;59852;43.086;25.634;2023-06-14T08:58:47;98687.84;;;22.44;61.94
58668;BME280;59852;43.086;25.634;2023-06-14T09:01:14;98691.53;;;22.43;60.98
58668;BME280;59852;43.086;25.634;2023-06-14T09:03:41;98693.44;;;22.49;61.82
58668;BME280;59852;43.086;25.634;2023-06-14T09:06:07;98685.31;;;22.72;61.20
58668;BME280;59852;43.086;25.634;2023-06-14T09:08:41;98694.88;;;22.67;61.50
58668;BME280;59852;43.086;25.634;2023-06-14T09:11:08;98689.16;;;22.70;61.73
58668;BME280;59852;43.086;25.634;2023-06-14T09:13:33;98688.09;;;22.49;61.60
58668;BME280;59852;43.086;25.634;2023-06-14T09:15:59;98698.38;;;22.67;61.40
58668;BME280;59852;43.086;25.634;2023-06-14T09:21:19;98693.31;;;22.72;60.74
58668;BME280;59852;43.086;25.634;2023-06-14T09:23:46;98690.88;;;22.56;60.69
58668;BME280;59852;43.086;25.634;2023-06-14T09:26:16;98689.44;;;22.75;61.64
58668;BME280;59852;43.086;25.634;2023-06-14T09:28:42;98682.63;;;23.08;59.43
58668;BME280;59852;43.086;25.634;2023-06-14T09:31:08;98684.16;;;23.17;59.61
58668;BME280;59852;43.086;25.634;2023-06-14T09:33:34;98693.06;;;23.03;59.68
58668;BME280;59852;43.086;25.634;2023-06-14T09:36:00;98697.38;;;23.04;59.86
58668;BME280;59852;43.086;25.634;2023-06-14T09:38:25;98693.09;;;23.10;58.62
58668;BME280;59852;43.086;25.634;2023-06-14T09:40:51;98693.84;;;22.82;57.94
58668;BME280;59852;43.086;25.634;2023-06-14T09:43:17;98693.81;;;22.97;58.14
58668;BME280;59852;43.086;25.634;2023-06-14T09:45:43;98693.38;;;23.15;58.99
58668;BME280;59852;43.086;25.634;2023-06-14T09:48:11;98692.91;;;22.54;60.06
58668;BME280;59852;43.086;25.634;2023-06-14T09:50:37;98689.53;;;22.67;59.13
58668;BME280;59852;43.086;25.634;2023-06-14T09:53:03;98689.16;;;22.84;59.95
58668;BME280;59852;43.086;25.634;2023-06-14T09:55:30;98682.25;;;22.75;59.18
58668;BME280;59852;43.086;25.634;2023-06-14T09:57:56;98683.63;;;22.86;59.78
58668;BME280;59852;43.086;25.634;2023-06-14T10:00:22;98678.94;;;22.52;60.51
58668;BME280;59852;43.086;25.634;2023-06-14T10:02:49;98673.69;;;22.80;60.18
58668;BME280;59852;43.086;25.634;2023-06-14T10:05:19;98678.25;;;22.65;60.23
58668;BME280;59852;43.086;25.634;2023-06-14T10:07:50;98668.94;;;22.75;59.40
58668;BME280;59852;43.086;25.634;2023-06-14T10:10:17;98672.19;;;22.56;58.33
58668;BME280;59852;43.086;25.634;2023-06-14T10:12:42;98674.00;;;22.19;59.33
58668;BME280;59852;43.086;25.634;2023-06-14T10:15:09;98671.28;;;22.49;58.91
58668;BME280;59852;43.086;25.634;2023-06-14T10:17:56;98663.00;;;22.80;57.70
58668;BME280;59852;43.086;25.634;2023-06-14T10:20:30;98669.03;;;23.03;57.07
58668;BME280;59852;43.086;25.634;2023-06-14T10:23:00;98661.69;;;22.69;56.79
58668;BME280;59852;43.086;25.634;2023-06-14T10:25:30;98660.47;;;23.08;56.49
58668;BME280;59852;43.086;25.634;2023-06-14T10:28:14;98667.84;;;23.06;57.94
58668;BME280;59852;43.086;25.634;2023-06-14T10:30:45;98667.84;;;23.06;54.44
58668;BME280;59852;43.086;25.634;2023-06-14T10:33:26;98669.09;;;23.10;55.30
58668;BME280;59852;43.086;25.634;2023-06-14T10:36:06;98669.31;;;23.36;55.40
58668;BME280;59852;43.086;25.634;2023-06-14T10:38:31;98667.63;;;23.29;55.58
58668;BME280;59852;43.086;25.634;2023-06-14T10:40:58;98660.53;;;22.93;54.49
58668;BME280;59852;43.086;25.634;2023-06-14T10:43:23;98669.47;;;23.07;55.04
58668;BME280;59852;43.086;25.634;2023-06-14T10:46:22;98665.78;;;23.29;54.53
58668;BME280;59852;43.086;25.634;2023-06-14T10:48:41;98662.41;;;23.42;55.62
58668;BME280;59852;43.086;25.634;2023-06-14T10:51:19;98657.50;;;23.45;53.21
58668;BME280;59852;43.086;25.634;2023-06-14T10:53:50;98653.56;;;23.41;52.33
58668;BME280;59852;43.086;25.634;2023-06-14T10:56:32;98653.91;;;23.32;54.56
58668;BME280;59852;43.086;25.634;2023-06-14T10:58:57;98655.31;;;23.56;52.64
58668;BME280;59852;43.086;25.634;2023-06-14T11:01:27;98664.63;;;23.38;51.80
58668;BME280;59852;43.086;25.634;2023-06-14T11:03:56;98661.38;;;23.64;50.38
58668;BME280;59852;43.086;25.634;2023-06-14T11:06:22;98664.69;;;23.45;49.86
58668;BME280;59852;43.086;25.634;2023-06-14T11:11:31;98660.06;;;23.82;51.59
58668;BME280;59852;43.086;25.634;2023-06-14T11:13:59;98654.44;;;23.70;50.27
58668;BME280;59852;43.086;25.634;2023-06-14T11:16:25;98649.59;;;23.59;50.19
58668;BME280;59852;43.086;25.634;2023-06-14T11:18:51;98655.53;;;23.82;52.18
58668;BME280;59852;43.086;25.634;2023-06-14T11:21:16;98642.06;;;23.69;52.24
58668;BME280;59852;43.086;25.634;2023-06-14T11:23:48;98646.91;;;23.80;52.04
58668;BME280;59852;43.086;25.634;2023-06-14T11:26:13;98645.22;;;23.79;52.18
58668;BME280;59852;43.086;25.634;2023-06-14T11:28:39;98644.69;;;23.90;53.54
58668;BME280;59852;43.086;25.634;2023-06-14T11:31:05;98654.53;;;23.34;55.25
58668;BME280;59852;43.086;25.634;2023-06-14T11:33:30;98645.34;;;23.64;55.69
58668;BME280;59852;43.086;25.634;2023-06-14T11:35:56;98639.00;;;23.44;56.27
58668;BME280;59852;43.086;25.634;2023-06-14T11:38:21;98634.06;;;23.69;55.84
58668;BME280;59852;43.086;25.634;2023-06-14T11:40:47;98628.53;;;23.42;55.74
58668;BME280;59852;43.086;25.634;2023-06-14T11:43:12;98624.84;;;23.71;55.44
58668;BME280;59852;43.086;25.634;2023-06-14T11:45:39;98631.88;;;23.79;53.99
58668;BME280;59852;43.086;25.634;2023-06-14T11:48:05;98634.31;;;23.74;54.71
58668;BME280;59852;43.086;25.634;2023-06-14T11:50:31;98625.44;;;24.01;53.22
58668;BME280;59852;43.086;25.634;2023-06-14T11:53:01;98628.84;;;24.30;52.83
58668;BME280;59852;43.086;25.634;2023-06-14T11:55:35;98626.13;;;24.23;52.19
58668;BME280;59852;43.086;25.634;2023-06-14T11:58:01;98624.78;;;24.34;52.39
58668;BME280;59852;43.086;25.634;2023-06-14T12:00:26;98624.91;;;24.26;51.07
58668;BME280;59852;43.086;25.634;2023-06-14T12:02:53;98621.00;;;24.22;52.11
58668;BME280;59852;43.086;25.634;2023-06-14T12:05:20;98623.84;;;24.14;52.27
58668;BME280;59852;43.086;25.634;2023-06-14T12:07:46;98623.63;;;24.15;51.25
58668;BME280;59852;43.086;25.634;2023-06-14T12:10:12;98627.34;;;24.14;50.19
58668;BME280;59852;43.086;25.634;2023-06-14T12:12:39;98615.56;;;24.09;49.80
58668;BME280;59852;43.086;25.634;2023-06-14T12:15:06;98618.00;;;23.97;50.87
58668;BME280;59852;43.086;25.634;2023-06-14T12:17:35;98621.28;;;23.92;51.50
58668;BME280;59852;43.086;25.634;2023-06-14T12:20:19;98612.75;;;24.17;50.25
58668;BME280;59852;43.086;25.634;2023-06-14T12:22:50;98612.03;;;24.36;50.79
58668;BME280;59852;43.086;25.634;2023-06-14T12:27:52;98611.09;;;24.16;50.88
58668;BME280;59852;43.086;25.634;2023-06-14T12:30:17;98606.09;;;23.99;50.22
58668;BME280;59852;43.086;25.634;2023-06-14T12:32:43;98604.44;;;23.92;50.63
58668;BME280;59852;43.086;25.634;2023-06-14T12:35:09;98608.91;;;23.57;50.87
58668;BME280;59852;43.086;25.634;2023-06-14T12:37:34;98596.03;;;24.01;50.63
58668;BME280;59852;43.086;25.634;2023-06-14T12:39:59;98594.03;;;24.17;51.36
58668;BME280;59852;43.086;25.634;2023-06-14T12:42:25;98592.72;;;24.47;48.05
58668;BME280;59852;43.086;25.634;2023-06-14T12:44:50;98593.44;;;24.89;50.37
58668;BME280;59852;43.086;25.634;2023-06-14T12:47:15;98591.72;;;24.55;48.37
58668;BME280;59852;43.086;25.634;2023-06-14T12:49:41;98592.84;;;24.26;47.15
58668;BME280;59852;43.086;25.634;2023-06-14T12:52:07;98582.97;;;24.20;48.41
58668;BME280;59852;43.086;25.634;2023-06-14T12:54:32;98578.44;;;24.20;48.99
58668;BME280;59852;43.086;25.634;2023-06-14T12:56:57;98583.66;;;24.35;48.97
58668;BME280;59852;43.086;25.634;2023-06-14T12:59:23;98573.41;;;24.39;48.97